createdAt,value
2019-05-14T00:01:46.194Z,2.77
2019-05-14T00:04:14.590Z,2.27
2019-05-14T00:06:42.777Z,2.40
2019-05-14T00:09:12.171Z,2.43
2019-05-14T00:11:42.134Z,2.33
2019-05-14T00:14:11.619Z,2.40
2019-05-14T00:16:42.317Z,2.60
2019-05-14T00:19:11.171Z,2.77
2019-05-14T00:21:42.116Z,2.53
2019-05-14T00:24:11.330Z,2.27
2019-05-14T00:26:42.316Z,2.70
2019-05-14T00:29:11.368Z,2.70
2019-05-14T00:31:42.170Z,2.33
2019-05-14T00:34:11.223Z,2.50
2019-05-14T00:36:41.637Z,2.53
2019-05-14T00:39:11.268Z,2.90
2019-05-14T00:41:41.770Z,2.47
2019-05-14T00:44:09.947Z,2.30
2019-05-14T00:46:38.289Z,2.43
2019-05-14T00:49:06.869Z,2.60
2019-05-14T00:51:35.167Z,2.80
2019-05-14T00:54:03.328Z,2.50
2019-05-14T00:56:32.214Z,2.53
2019-05-14T00:59:01.414Z,3.00
2019-05-14T01:01:31.642Z,2.70
2019-05-14T01:04:01.262Z,3.17
2019-05-14T01:06:31.481Z,2.90
2019-05-14T01:09:01.367Z,2.60
2019-05-14T01:11:31.482Z,2.20
2019-05-14T01:14:01.763Z,2.23
2019-05-14T01:16:31.830Z,2.50
2019-05-14T01:19:02.062Z,2.43
2019-05-14T01:21:31.159Z,2.80
2019-05-14T01:24:01.869Z,2.23
2019-05-14T01:26:31.009Z,2.27
2019-05-14T01:29:01.473Z,2.10
2019-05-14T01:31:31.489Z,2.33
2019-05-14T01:34:02.200Z,2.20
2019-05-14T01:36:32.041Z,2.20
2019-05-14T01:39:01.821Z,2.93
2019-05-14T01:41:31.703Z,2.40
2019-05-14T01:44:01.839Z,2.70
2019-05-14T01:46:31.684Z,2.40
2019-05-14T01:49:01.518Z,2.47
2019-05-14T01:51:31.605Z,2.57
2019-05-14T01:54:01.490Z,2.43
2019-05-14T01:56:31.872Z,2.90
2019-05-14T01:59:01.642Z,2.33
2019-05-14T02:01:31.543Z,2.60
2019-05-14T02:04:02.150Z,2.47
2019-05-14T02:06:31.796Z,2.60
2019-05-14T02:09:02.007Z,2.50
2019-05-14T02:11:32.068Z,2.47
2019-05-14T02:14:02.467Z,2.50
2019-05-14T02:16:31.444Z,2.37
2019-05-14T02:19:01.359Z,3.00
2019-05-14T02:21:31.711Z,2.77
2019-05-14T02:24:01.839Z,2.53
2019-05-14T02:26:31.390Z,2.77
2019-05-14T02:29:01.794Z,2.53
2019-05-14T02:31:29.877Z,2.47
2019-05-14T02:33:59.073Z,2.80
2019-05-14T02:36:30.660Z,2.50
2019-05-14T02:39:00.352Z,2.90
2019-05-14T02:41:29.929Z,2.40
2019-05-14T02:43:59.420Z,2.43
2019-05-14T02:46:29.593Z,2.90
2019-05-14T02:48:59.445Z,2.87
2019-05-14T02:51:30.084Z,3.80
2019-05-14T02:53:59.349Z,3.40
2019-05-14T02:56:29.533Z,2.60
2019-05-14T02:59:00.443Z,2.80
2019-05-14T03:01:30.150Z,2.60
2019-05-14T03:03:59.849Z,2.93
2019-05-14T03:06:29.118Z,3.37
2019-05-14T03:08:59.970Z,2.87
2019-05-14T03:11:29.784Z,2.37
2019-05-14T03:13:59.951Z,2.60
2019-05-14T03:16:32.587Z,2.90
2019-05-14T03:18:59.689Z,2.27
2019-05-14T03:21:30.480Z,2.70
2019-05-14T03:24:00.704Z,2.97
2019-05-14T03:26:29.694Z,3.23
2019-05-14T03:29:00.102Z,2.43
2019-05-14T03:31:33.036Z,2.73
2019-05-14T03:34:03.179Z,3.03
2019-05-14T03:36:34.129Z,2.50
2019-05-14T03:38:59.367Z,2.80
2019-05-14T03:41:30.689Z,2.90
2019-05-14T03:44:00.072Z,2.80
2019-05-14T03:46:44.120Z,3.50
2019-05-14T03:49:00.098Z,3.23
2019-05-14T03:51:29.878Z,2.60
2019-05-14T03:54:05.826Z,2.93
2019-05-14T03:56:29.901Z,2.93
2019-05-14T03:58:59.955Z,3.83
2019-05-14T04:01:29.729Z,3.73
2019-05-14T04:03:59.336Z,3.80
2019-05-14T04:06:30.130Z,3.37
2019-05-14T04:09:00.611Z,3.60
2019-05-14T04:11:29.476Z,2.80
2019-05-14T04:14:00.342Z,3.00
2019-05-14T04:16:29.353Z,2.77
2019-05-14T04:18:59.569Z,2.47
2019-05-14T04:21:29.750Z,2.90
2019-05-14T04:23:59.560Z,2.63
2019-05-14T04:26:30.243Z,2.87
2019-05-14T04:29:00.551Z,3.33
2019-05-14T04:31:31.322Z,3.07
2019-05-14T04:34:01.760Z,2.77
2019-05-14T04:36:30.504Z,2.63
2019-05-14T04:39:00.656Z,2.53
2019-05-14T04:41:29.931Z,2.87
2019-05-14T04:43:59.429Z,2.87
2019-05-14T04:46:30.338Z,2.70
2019-05-14T04:48:59.116Z,2.60
2019-05-14T04:51:30.279Z,2.50
2019-05-14T04:53:59.827Z,3.53
2019-05-14T04:56:30.136Z,2.60
2019-05-14T04:58:59.665Z,2.40
2019-05-14T05:01:29.478Z,2.70
2019-05-14T05:03:59.271Z,2.93
2019-05-14T05:06:29.174Z,3.03
2019-05-14T05:09:00.151Z,3.37
2019-05-14T05:11:29.119Z,3.20
2019-05-14T05:13:59.264Z,3.03
2019-05-14T05:16:29.595Z,2.60
2019-05-14T05:18:59.440Z,2.60
2019-05-14T05:21:28.365Z,2.60
2019-05-14T05:23:58.452Z,3.13
2019-05-14T05:26:28.610Z,3.53
2019-05-14T05:29:03.693Z,3.33
2019-05-14T05:31:28.995Z,4.37
2019-05-14T05:33:58.270Z,7.63
2019-05-14T05:36:29.012Z,9.80
2019-05-14T05:38:59.310Z,6.40
2019-05-14T05:41:28.324Z,4.57
2019-05-14T05:43:58.875Z,6.20
2019-05-14T05:46:28.583Z,11.87
2019-05-14T05:48:58.524Z,4.50
2019-05-14T05:51:28.900Z,8.33
2019-05-14T05:53:58.828Z,4.40
2019-05-14T05:56:28.856Z,7.17
2019-05-14T05:58:57.634Z,5.47
2019-05-14T06:01:39.477Z,5.93
2019-05-14T06:03:58.384Z,4.90
2019-05-14T06:06:28.365Z,2.90
2019-05-14T06:08:58.365Z,3.00
2019-05-14T06:11:29.029Z,2.70
2019-05-14T06:13:58.922Z,3.33
2019-05-14T06:16:28.991Z,2.70
2019-05-14T06:18:58.821Z,6.13
2019-05-14T06:21:29.306Z,16.60
2019-05-14T06:23:58.220Z,14.40
2019-05-14T06:26:28.964Z,23.23
2019-05-14T06:28:59.679Z,13.37
2019-05-14T06:31:29.120Z,14.97
2019-05-14T06:33:59.223Z,16.13
2019-05-14T06:36:29.078Z,12.17
2019-05-14T06:38:58.615Z,7.27
2019-05-14T06:41:28.376Z,4.00
2019-05-14T06:43:59.144Z,4.50
2019-05-14T06:46:28.388Z,2.77
2019-05-14T06:48:59.102Z,2.73
2019-05-14T06:51:28.840Z,2.63
2019-05-14T06:53:58.806Z,2.70
2019-05-14T06:56:28.226Z,2.93
2019-05-14T06:58:58.376Z,2.70
2019-05-14T07:01:28.983Z,2.63
2019-05-14T07:03:58.077Z,3.20
2019-05-14T07:06:29.126Z,3.30
2019-05-14T07:08:58.895Z,3.37
2019-05-14T07:11:29.275Z,2.30
2019-05-14T07:13:58.103Z,2.20
2019-05-14T07:16:28.474Z,2.33
2019-05-14T07:18:58.859Z,2.63
2019-05-14T07:21:28.984Z,10.73
2019-05-14T07:23:59.146Z,10.07
2019-05-14T07:26:29.568Z,5.77
2019-05-14T07:28:59.081Z,3.57
2019-05-14T07:31:29.070Z,2.53
2019-05-14T07:33:58.318Z,2.70
2019-05-14T07:36:29.069Z,2.40
2019-05-14T07:39:00.053Z,2.37
2019-05-14T07:41:28.481Z,2.40
2019-05-14T07:43:58.654Z,2.40
2019-05-14T07:46:28.307Z,2.80
2019-05-14T07:49:05.329Z,4.27
2019-05-14T07:51:28.259Z,42.60
2019-05-14T07:53:58.019Z,47.77
2019-05-14T07:56:29.029Z,47.20
2019-05-14T07:58:58.489Z,43.33
2019-05-14T08:01:28.178Z,3.33
2019-05-14T08:03:59.947Z,2.77
2019-05-14T08:06:28.165Z,3.30
2019-05-14T08:08:56.185Z,3.07
2019-05-14T08:11:23.727Z,3.07
2019-05-14T08:13:52.006Z,3.00
2019-05-14T08:16:20.629Z,3.00
2019-05-14T08:18:49.288Z,3.20
2019-05-14T08:21:19.395Z,2.87
2019-05-14T08:23:48.157Z,2.60
2019-05-14T08:26:19.005Z,2.93
2019-05-14T08:28:48.816Z,2.87
2019-05-14T08:31:18.731Z,3.20
2019-05-14T08:33:48.898Z,2.87
2019-05-14T08:36:18.406Z,3.03
2019-05-14T08:38:49.647Z,3.07
2019-05-14T08:41:19.527Z,3.07
2019-05-14T08:43:48.897Z,3.13
2019-05-14T08:46:19.221Z,3.53
2019-05-14T08:48:49.713Z,3.37
2019-05-14T08:51:18.653Z,3.40
2019-05-14T08:53:50.444Z,3.37
2019-05-14T08:56:19.123Z,3.80
2019-05-14T08:58:49.479Z,3.50
2019-05-14T09:01:19.518Z,4.03
2019-05-14T09:03:49.152Z,3.90
2019-05-14T09:06:18.641Z,4.33
2019-05-14T09:08:49.251Z,4.27
2019-05-14T09:11:22.974Z,4.53
2019-05-14T09:13:49.047Z,4.50
2019-05-14T09:16:19.402Z,3.53
2019-05-14T09:18:49.185Z,4.80
2019-05-14T09:21:20.202Z,5.33
2019-05-14T09:23:48.275Z,4.77
2019-05-14T09:26:18.174Z,3.77
2019-05-14T09:28:48.276Z,6.23
2019-05-14T09:31:15.963Z,5.03
2019-05-14T09:33:44.318Z,7.03
2019-05-14T09:36:19.687Z,4.17
2019-05-14T09:38:42.772Z,3.73
2019-05-14T09:41:15.658Z,4.50
2019-05-14T09:43:44.003Z,4.37
2019-05-14T09:46:11.980Z,5.00
2019-05-14T09:48:40.232Z,4.33
2019-05-14T09:51:09.329Z,4.13
2019-05-14T09:53:38.484Z,3.37
2019-05-14T09:56:09.147Z,4.70
2019-05-14T09:58:38.728Z,4.30
2019-05-14T10:01:08.488Z,4.40
2019-05-14T10:03:39.100Z,4.20
2019-05-14T10:06:09.799Z,3.73
2019-05-14T10:08:39.074Z,4.23
2019-05-14T10:11:07.488Z,4.60
2019-05-14T10:13:35.455Z,4.00
2019-05-14T10:16:03.338Z,3.83
2019-05-14T10:18:31.842Z,3.90
2019-05-14T10:21:00.451Z,3.70
2019-05-14T10:23:28.898Z,3.47
2019-05-14T10:25:58.204Z,3.40
2019-05-14T10:28:28.803Z,3.00
2019-05-14T10:30:59.441Z,3.47
2019-05-14T10:33:28.754Z,3.33
2019-05-14T10:35:58.854Z,3.23
2019-05-14T10:38:29.589Z,3.40
2019-05-14T10:40:58.563Z,3.00
2019-05-14T10:43:28.796Z,3.70
2019-05-14T10:45:58.045Z,3.10
2019-05-14T10:48:28.938Z,3.23
2019-05-14T10:51:02.841Z,3.27
2019-05-14T10:53:28.949Z,3.53
2019-05-14T10:55:58.263Z,3.50
2019-05-14T10:58:29.124Z,3.60
2019-05-14T11:00:58.836Z,3.60
2019-05-14T11:03:29.750Z,4.00
2019-05-14T11:05:58.827Z,4.13
2019-05-14T11:08:29.664Z,3.70
2019-05-14T11:11:03.653Z,3.80
2019-05-14T11:13:29.345Z,4.07
2019-05-14T11:15:59.528Z,3.70
2019-05-14T11:18:29.147Z,4.50
2019-05-14T11:21:18.132Z,3.80
2019-05-14T11:23:29.743Z,5.07
2019-05-14T11:25:58.544Z,4.13
2019-05-14T11:28:28.659Z,3.53
2019-05-14T11:30:56.937Z,4.33
2019-05-14T11:33:25.616Z,4.10
2019-05-14T11:35:54.119Z,4.50
2019-05-14T11:38:33.647Z,4.37
2019-05-14T11:40:52.716Z,4.07
2019-05-14T11:43:21.000Z,3.90
2019-05-14T11:45:49.489Z,4.00
2019-05-14T11:48:19.278Z,3.70
2019-05-14T11:50:49.111Z,3.90
2019-05-14T11:53:20.039Z,3.80
2019-05-14T11:55:50.391Z,3.87
2019-05-14T11:58:20.649Z,2.97
2019-05-14T12:00:48.985Z,3.97
2019-05-14T12:03:19.385Z,4.10
2019-05-14T12:05:49.569Z,3.83
2019-05-14T12:08:18.919Z,3.90
2019-05-14T12:10:47.634Z,3.50
2019-05-14T12:13:16.196Z,3.30
2019-05-14T12:15:44.245Z,3.43
2019-05-14T12:18:12.919Z,3.50
2019-05-14T12:20:41.272Z,3.30
2019-05-14T12:23:09.875Z,3.97
2019-05-14T12:25:38.154Z,4.03
2019-05-14T12:28:13.293Z,3.40
2019-05-14T12:30:39.535Z,3.67
2019-05-14T12:33:07.408Z,3.57
2019-05-14T12:35:35.886Z,3.40
2019-05-14T12:38:04.068Z,3.00
2019-05-14T12:40:32.007Z,4.20
2019-05-14T12:43:00.277Z,3.03
2019-05-14T12:45:29.969Z,3.67
2019-05-14T12:47:58.642Z,4.03
2019-05-14T12:50:26.912Z,3.60
2019-05-14T12:52:54.795Z,3.73
2019-05-14T12:55:23.067Z,3.43
2019-05-14T12:57:51.360Z,3.83
2019-05-14T13:00:19.705Z,3.77
2019-05-14T13:02:47.626Z,3.23
2019-05-14T13:05:18.343Z,3.30
2019-05-14T13:07:45.904Z,4.47
2019-05-14T13:10:18.609Z,5.23
2019-05-14T13:12:48.172Z,6.80
2019-05-14T13:15:16.011Z,10.33
2019-05-14T13:17:43.919Z,11.08
2019-05-14T13:20:14.196Z,7.80
2019-05-14T13:22:46.378Z,4.80
2019-05-14T13:25:12.071Z,4.77
2019-05-14T13:27:40.021Z,7.53
2019-05-14T13:30:09.228Z,4.23
2019-05-14T13:32:39.370Z,5.20
2019-05-14T13:35:13.556Z,8.00
2019-05-14T13:37:40.051Z,3.40
2019-05-14T13:40:09.373Z,4.70
2019-05-14T13:42:39.875Z,6.63
2019-05-14T13:45:10.157Z,5.70
2019-05-14T13:47:38.856Z,4.03
2019-05-14T13:50:08.517Z,3.13
2019-05-14T13:52:40.429Z,5.03
2019-05-14T13:55:09.309Z,4.30
2019-05-14T13:57:39.804Z,3.30
2019-05-14T14:00:11.932Z,3.50
2019-05-14T14:02:38.245Z,3.93
2019-05-14T14:05:08.587Z,3.80
2019-05-14T14:07:39.354Z,3.40
2019-05-14T14:10:09.008Z,3.03
2019-05-14T14:12:40.291Z,2.97
2019-05-14T14:15:09.468Z,3.10
2019-05-14T14:17:39.358Z,3.10
2019-05-14T14:20:08.577Z,2.63
2019-05-14T14:22:39.957Z,2.47
2019-05-14T14:25:09.136Z,2.70
2019-05-14T14:27:40.613Z,2.67
2019-05-14T14:30:09.476Z,3.00
2019-05-14T14:32:40.530Z,3.07
2019-05-14T14:35:08.871Z,2.30
2019-05-14T14:37:39.679Z,2.70
2019-05-14T14:40:10.133Z,2.33
2019-05-14T14:42:39.994Z,2.50
2019-05-14T14:45:08.816Z,2.57
2019-05-14T14:47:39.422Z,2.60
2019-05-14T14:50:08.372Z,2.27
2019-05-14T14:52:36.880Z,2.50
2019-05-14T14:55:06.215Z,2.10
2019-05-14T14:57:34.732Z,2.00
2019-05-14T15:00:03.012Z,1.83
2019-05-14T15:02:31.543Z,2.30
2019-05-14T15:05:00.251Z,2.20
2019-05-14T15:07:30.220Z,2.90
2019-05-14T15:09:59.614Z,3.30
2019-05-14T15:12:29.063Z,2.23
2019-05-14T15:14:59.334Z,2.10
2019-05-14T15:17:29.430Z,3.57
2019-05-14T15:19:59.450Z,3.33
2019-05-14T15:22:30.926Z,2.97
2019-05-14T15:24:58.731Z,2.90
2019-05-14T15:27:28.222Z,2.00
2019-05-14T15:29:59.178Z,2.80
2019-05-14T15:32:30.043Z,2.57
2019-05-14T15:34:59.408Z,2.30
2019-05-14T15:37:31.230Z,2.47
2019-05-14T15:39:58.483Z,2.30
2019-05-14T15:42:28.298Z,2.40
2019-05-14T15:44:59.736Z,2.10
2019-05-14T15:47:29.502Z,7.13
2019-05-14T15:49:59.471Z,7.10
2019-05-14T15:52:29.104Z,10.60
2019-05-14T15:54:58.275Z,6.27
2019-05-14T15:57:28.725Z,11.47
2019-05-14T16:00:00.870Z,3.30
2019-05-14T16:02:29.614Z,6.47
2019-05-14T16:04:59.150Z,6.77
2019-05-14T16:07:29.306Z,2.80
2019-05-14T16:10:00.664Z,2.67
2019-05-14T16:12:32.149Z,2.97
2019-05-14T16:14:58.625Z,2.67
2019-05-14T16:17:29.807Z,2.90
2019-05-14T16:19:56.996Z,2.80
2019-05-14T16:22:26.057Z,2.20
2019-05-14T16:24:57.172Z,2.37
2019-05-14T16:27:24.708Z,2.80
2019-05-14T16:29:53.530Z,2.47
2019-05-14T16:32:22.089Z,3.33
2019-05-14T16:34:50.905Z,2.50
2019-05-14T16:37:19.471Z,2.73
2019-05-14T16:39:48.800Z,4.20
2019-05-14T16:42:20.540Z,2.60
2019-05-14T16:44:47.206Z,2.30
2019-05-14T16:47:15.626Z,2.37
2019-05-14T16:49:43.453Z,3.33
2019-05-14T16:52:12.177Z,5.10
2019-05-14T16:54:40.973Z,4.20
2019-05-14T16:57:10.941Z,2.97
2019-05-14T16:59:39.606Z,2.30
2019-05-14T17:02:09.154Z,2.40
2019-05-14T17:04:38.749Z,3.30
2019-05-14T17:07:09.591Z,4.20
2019-05-14T17:09:38.474Z,3.70
2019-05-14T17:12:08.534Z,5.50
2019-05-14T17:14:38.526Z,2.73
2019-05-14T17:17:09.128Z,2.87
2019-05-14T17:19:38.585Z,2.80
2019-05-14T17:22:23.363Z,4.03
2019-05-14T17:24:39.809Z,2.70
2019-05-14T17:27:08.843Z,3.13
2019-05-14T17:29:38.927Z,9.37
2019-05-14T17:32:07.073Z,4.10
2019-05-14T17:34:35.473Z,2.93
2019-05-14T17:37:03.340Z,2.37
2019-05-14T17:39:31.875Z,2.50
2019-05-14T17:42:00.123Z,2.30
2019-05-14T17:44:28.141Z,3.90
2019-05-14T17:46:58.706Z,2.80
2019-05-14T17:49:28.381Z,3.10
2019-05-14T17:51:58.119Z,2.60
2019-05-14T17:54:28.417Z,2.20
2019-05-14T17:56:59.050Z,2.33
2019-05-14T17:59:29.529Z,2.50
2019-05-14T18:01:58.191Z,2.50
2019-05-14T18:04:28.368Z,2.20
2019-05-14T18:06:59.004Z,3.10
2019-05-14T18:09:29.104Z,2.67
2019-05-14T18:11:58.602Z,2.47
2019-05-14T18:14:28.377Z,3.17
2019-05-14T18:16:58.472Z,4.30
2019-05-14T18:19:28.929Z,2.80
2019-05-14T18:21:59.230Z,3.97
2019-05-14T18:24:28.630Z,3.90
2019-05-14T18:26:56.908Z,2.33
2019-05-14T18:29:24.971Z,3.23
2019-05-14T18:31:54.533Z,4.30
2019-05-14T18:34:23.184Z,2.87
2019-05-14T18:36:51.364Z,2.13
2019-05-14T18:39:20.952Z,2.60
2019-05-14T18:41:49.996Z,2.20
2019-05-14T18:44:18.965Z,3.90
2019-05-14T18:46:48.628Z,2.60
2019-05-14T18:49:19.580Z,2.40
2019-05-14T18:51:50.114Z,2.53
2019-05-14T18:54:17.729Z,2.53
2019-05-14T18:56:48.734Z,2.10
2019-05-14T18:59:20.960Z,2.00
2019-05-14T19:01:48.899Z,4.00
2019-05-14T19:04:18.515Z,6.73
2019-05-14T19:06:48.249Z,5.00
2019-05-14T19:09:18.555Z,3.47
2019-05-14T19:11:48.293Z,2.30
2019-05-14T19:14:18.769Z,2.53
2019-05-14T19:16:48.747Z,2.37
2019-05-14T19:19:16.632Z,2.87
2019-05-14T19:21:44.925Z,2.77
2019-05-14T19:24:13.594Z,2.67
2019-05-14T19:26:42.259Z,2.90
2019-05-14T19:29:10.523Z,3.30
2019-05-14T19:31:38.816Z,4.90
2019-05-14T19:34:08.457Z,7.10
2019-05-14T19:36:37.283Z,4.43
2019-05-14T19:39:07.847Z,3.67
2019-05-14T19:41:38.777Z,14.70
2019-05-14T19:44:08.815Z,27.37
2019-05-14T19:46:38.652Z,13.23
2019-05-14T19:49:08.146Z,12.40
2019-05-14T19:51:38.567Z,12.23
2019-05-14T19:54:08.167Z,8.00
2019-05-14T19:56:51.976Z,8.27
2019-05-14T19:59:09.096Z,6.60
2019-05-14T20:01:38.523Z,7.33
2019-05-14T20:04:09.519Z,5.10
2019-05-14T20:06:38.777Z,3.53
2019-05-14T20:09:09.450Z,3.23
2019-05-14T20:11:39.702Z,3.30
2019-05-14T20:14:08.651Z,3.70
2019-05-14T20:16:39.244Z,3.97
2019-05-14T20:19:08.820Z,2.90
2019-05-14T20:21:39.006Z,3.17
2019-05-14T20:24:07.731Z,2.73
2019-05-14T20:26:38.743Z,3.37
2019-05-14T20:29:08.742Z,3.07
2019-05-14T20:31:38.869Z,3.50
2019-05-14T20:34:08.431Z,2.87
2019-05-14T20:36:38.961Z,3.07
2019-05-14T20:39:08.706Z,3.07
2019-05-14T20:41:38.467Z,2.77
2019-05-14T20:44:07.374Z,2.90
2019-05-14T20:46:38.067Z,2.50
2019-05-14T20:49:08.608Z,2.90
2019-05-14T20:51:38.697Z,2.83
2019-05-14T20:54:08.875Z,3.03
2019-05-14T20:56:39.994Z,2.50
2019-05-14T20:59:08.414Z,3.03
2019-05-14T21:01:38.681Z,4.37
2019-05-14T21:04:08.809Z,2.70
2019-05-14T21:06:39.014Z,2.87
2019-05-14T21:09:07.251Z,2.10
2019-05-14T21:11:35.327Z,4.03
2019-05-14T21:14:03.601Z,2.77
2019-05-14T21:16:31.154Z,3.17
2019-05-14T21:18:59.620Z,4.00
2019-05-14T21:21:28.415Z,3.40
2019-05-14T21:23:58.630Z,3.20
2019-05-14T21:26:29.193Z,2.47
2019-05-14T21:28:58.350Z,3.23
2019-05-14T21:31:28.419Z,2.30
2019-05-14T21:33:58.668Z,2.90
2019-05-14T21:36:28.370Z,2.83
2019-05-14T21:38:58.509Z,2.60
2019-05-14T21:41:28.835Z,2.40
2019-05-14T21:43:58.363Z,2.63
2019-05-14T21:46:28.777Z,2.10
2019-05-14T21:48:58.569Z,2.63
2019-05-14T21:51:28.365Z,2.40
2019-05-14T21:53:58.876Z,2.80
2019-05-14T21:56:29.193Z,2.30
2019-05-14T21:59:01.281Z,2.37
2019-05-14T22:01:30.931Z,2.30
2019-05-14T22:04:00.562Z,2.40
2019-05-14T22:06:29.158Z,2.10
2019-05-14T22:08:59.105Z,2.20
2019-05-14T22:11:29.781Z,2.50
2019-05-14T22:13:58.437Z,2.40
2019-05-14T22:16:28.116Z,2.60
2019-05-14T22:18:59.239Z,2.60
2019-05-14T22:21:28.934Z,2.83
2019-05-14T22:23:59.048Z,3.40
2019-05-14T22:26:28.276Z,3.37
2019-05-14T22:28:58.513Z,3.17
2019-05-14T22:31:26.086Z,2.77
2019-05-14T22:33:59.556Z,3.33
2019-05-14T22:36:29.355Z,3.67
2019-05-14T22:38:57.973Z,2.97
2019-05-14T22:41:25.989Z,2.93
2019-05-14T22:43:56.812Z,3.00
2019-05-14T22:46:24.203Z,4.20
2019-05-14T22:48:52.060Z,3.70
2019-05-14T22:51:20.632Z,4.17
2019-05-14T22:53:49.423Z,4.70
2019-05-14T22:56:18.226Z,4.30
2019-05-14T22:58:48.671Z,4.30
2019-05-14T23:01:18.429Z,3.77
2019-05-14T23:03:48.943Z,3.97
2019-05-14T23:06:18.827Z,3.50
2019-05-14T23:08:48.652Z,3.40
2019-05-14T23:11:19.506Z,3.43
2019-05-14T23:13:48.821Z,3.80
2019-05-14T23:16:30.970Z,3.87
2019-05-14T23:18:48.768Z,4.10
2019-05-14T23:21:16.846Z,3.30
2019-05-14T23:23:45.192Z,3.50
2019-05-14T23:26:14.073Z,3.37
2019-05-14T23:28:45.952Z,3.67
2019-05-14T23:31:12.789Z,3.07
2019-05-14T23:33:41.073Z,3.43
2019-05-14T23:36:09.363Z,3.60
2019-05-14T23:38:38.972Z,3.77
2019-05-14T23:41:08.648Z,3.47
2019-05-14T23:43:39.118Z,3.53
2019-05-14T23:46:09.381Z,3.40
2019-05-14T23:48:39.131Z,3.80
2019-05-14T23:51:08.107Z,3.87
2019-05-14T23:53:39.212Z,3.97
2019-05-14T23:56:08.596Z,3.33
2019-05-14T23:58:37.153Z,2.80
